Las Vegas, NV

2:28 PM PDT on July 02, 2015 (GMT -0700)
APRSWXNET | | Change Station
CLOSE
Current Station
Personal Weather Station
Location: Henderson, NV
Elevation: 2402 ft
Nearby Weather Stations

Elev 2402 ft 35.99 °N, 115.12 °W | Updated 28 minutes ago

Clear
Clear
100 °F
Feels Like 100 °F
N
2
Wind Variable Wind from SW
Gusts 6.0 mph

Today
High -- | Low -- °F
--% Chance of Precip.
Yesterday
High -- | Low -- °F
Precip. -- in
5:27 AM 8:01 PM
Full, 99% visible
Pressure 29.77 in
Visibility 10.0 miles
Clouds Few 12000 ft
Few 16000 ft
Scattered Clouds 22000 ft
Heat Index 100 °F
Dew Point 58 °F
Humidity 25%
Rainfall in
Snow Depth Not available.
UV 9 out of 12
Pollen 1.60 out of 12
Air Quality Not available.
Flu Activity Not available.
METAR KLAS 022056Z 16007KT 10SM FEW120 FEW160 SCT220 38/14 A2987 RMK AO2 SLP081 CB DSNT NW ACC NE-E T03780144 58020

More Conditions Fewer Conditions

Pressure 29.77 in
Visibility 10.0 miles
Clouds Few 12000 ft
Few 16000 ft
Scattered Clouds 22000 ft
Heat Index 100 °F
Dew Point 58 °F
Humidity 25%
Rainfall in
Snow Depth Not available.
UV 9 out of 12
Pollen 1.60 out of 12
Air Quality Not available.
Flu Activity Not available.
METAR KLAS 022056Z 16007KT 10SM FEW120 FEW160 SCT220 38/14 A2987 RMK AO2 SLP081 CB DSNT NW ACC NE-E T03780144 58020

More Conditions Fewer Conditions

10-Day Weather Forecast

×

Almanac

Astronomy

Jul. 02, 2015 Rise Set
Actual Time
Civil Twilight
Nautical Twilight
Astronomical Twilight
Moon
Length of Visible Light
Length of Day
Tomorrow will be .
, % of the Moon is Illuminated

Today's Extremes

State Highs State Lows

Community

WunderPhotos

Upload Photos

1,834,544 photos uploaded!

WunderBlogs® & News

Nearby

Air Quality

  Air Quality AQ Index Pollutant
Not available.

Snow Depth

Station Depth Elevation

Earthquake Activity

City Distance Mag. Time & Date
Minimum magnitude displayed is 2.5.

Coastal Water Temperatures

Place Temperature

Stations

Nearby Weather Stations

Station Location Temp. Windchill Dew Point Humidity Wind Precip. Elev Updated Type